sensor_id;sensor_type;location;lat;lon;timestamp;temperature;humidity
20610;DHT22;10463;52.378;9.688;2022-07-01T00:00:15;27.30;41.50
20610;DHT22;10463;52.378;9.688;2022-07-01T00:03:00;27.30;41.30
20610;DHT22;10463;52.378;9.688;2022-07-01T00:05:47;27.20;41.40
20610;DHT22;10463;52.378;9.688;2022-07-01T00:08:31;27.10;41.30
20610;DHT22;10463;52.378;9.688;2022-07-01T00:11:17;27.10;41.30
20610;DHT22;10463;52.378;9.688;2022-07-01T00:14:01;27.00;41.20
20610;DHT22;10463;52.378;9.688;2022-07-01T00:16:46;27.00;41.20
20610;DHT22;10463;52.378;9.688;2022-07-01T00:19:31;27.00;41.30
20610;DHT22;10463;52.378;9.688;2022-07-01T00:22:17;26.90;41.20
20610;DHT22;10463;52.378;9.688;2022-07-01T00:25:03;26.90;41.20
20610;DHT22;10463;52.378;9.688;2022-07-01T00:27:49;26.80;41.10
20610;DHT22;10463;52.378;9.688;2022-07-01T00:30:33;26.80;41.10
20610;DHT22;10463;52.378;9.688;2022-07-01T00:33:18;26.70;41.00
20610;DHT22;10463;52.378;9.688;2022-07-01T00:36:04;26.70;41.10
20610;DHT22;10463;52.378;9.688;2022-07-01T00:38:50;26.70;41.00
20610;DHT22;10463;52.378;9.688;2022-07-01T00:41:35;26.70;40.90
20610;DHT22;10463;52.378;9.688;2022-07-01T00:44:20;26.60;40.60
20610;DHT22;10463;52.378;9.688;2022-07-01T00:47:11;26.60;41.00
20610;DHT22;10463;52.378;9.688;2022-07-01T00:49:56;26.50;40.80
20610;DHT22;10463;52.378;9.688;2022-07-01T00:52:43;26.50;40.90
20610;DHT22;10463;52.378;9.688;2022-07-01T00:55:29;26.40;40.90
20610;DHT22;10463;52.378;9.688;2022-07-01T00:58:14;26.30;40.80
20610;DHT22;10463;52.378;9.688;2022-07-01T01:00:59;26.30;40.80
20610;DHT22;10463;52.378;9.688;2022-07-01T01:03:44;26.30;41.20
20610;DHT22;10463;52.378;9.688;2022-07-01T01:06:29;26.20;41.30
20610;DHT22;10463;52.378;9.688;2022-07-01T01:09:14;26.20;41.50
20610;DHT22;10463;52.378;9.688;2022-07-01T01:12:01;26.10;41.40
20610;DHT22;10463;52.378;9.688;2022-07-01T01:14:48;26.10;41.30
20610;DHT22;10463;52.378;9.688;2022-07-01T01:17:32;26.10;41.30
20610;DHT22;10463;52.378;9.688;2022-07-01T01:20:20;26.20;41.40
20610;DHT22;10463;52.378;9.688;2022-07-01T01:23:07;26.20;41.30
20610;DHT22;10463;52.378;9.688;2022-07-01T01:25:52;26.20;41.10
20610;DHT22;10463;52.378;9.688;2022-07-01T01:28:37;26.30;40.80
20610;DHT22;10463;52.378;9.688;2022-07-01T01:31:29;26.30;40.80
20610;DHT22;10463;52.378;9.688;2022-07-01T01:34:14;26.30;40.80
20610;DHT22;10463;52.378;9.688;2022-07-01T01:37:00;26.30;40.80
20610;DHT22;10463;52.378;9.688;2022-07-01T01:39:46;26.40;40.50
20610;DHT22;10463;52.378;9.688;2022-07-01T01:42:31;26.40;40.30
20610;DHT22;10463;52.378;9.688;2022-07-01T01:45:15;26.40;40.20
20610;DHT22;10463;52.378;9.688;2022-07-01T01:48:00;26.40;40.10
20610;DHT22;10463;52.378;9.688;2022-07-01T01:50:46;26.40;40.00
20610;DHT22;10463;52.378;9.688;2022-07-01T01:53:31;26.40;39.90
20610;DHT22;10463;52.378;9.688;2022-07-01T01:56:18;26.40;39.80
20610;DHT22;10463;52.378;9.688;2022-07-01T01:59:03;26.40;39.70
20610;DHT22;10463;52.378;9.688;2022-07-01T02:01:49;26.50;39.70
20610;DHT22;10463;52.378;9.688;2022-07-01T02:04:34;26.50;39.50
20610;DHT22;10463;52.378;9.688;2022-07-01T02:07:19;26.50;39.40
20610;DHT22;10463;52.378;9.688;2022-07-01T02:10:05;26.50;39.30
20610;DHT22;10463;52.378;9.688;2022-07-01T02:12:52;26.50;39.10
20610;DHT22;10463;52.378;9.688;2022-07-01T02:15:37;26.50;39.10
20610;DHT22;10463;52.378;9.688;2022-07-01T02:18:22;26.50;39.00
20610;DHT22;10463;52.378;9.688;2022-07-01T02:21:07;26.50;38.90
20610;DHT22;10463;52.378;9.688;2022-07-01T02:23:52;26.50;38.80
20610;DHT22;10463;52.378;9.688;2022-07-01T02:26:38;26.50;38.70
20610;DHT22;10463;52.378;9.688;2022-07-01T02:29:24;26.40;38.60
20610;DHT22;10463;52.378;9.688;2022-07-01T02:32:10;26.40;38.50
20610;DHT22;10463;52.378;9.688;2022-07-01T02:34:55;26.40;38.50
20610;DHT22;10463;52.378;9.688;2022-07-01T02:37:39;26.40;38.40
20610;DHT22;10463;52.378;9.688;2022-07-01T02:40:24;26.40;38.40
20610;DHT22;10463;52.378;9.688;2022-07-01T02:43:09;26.40;38.40
20610;DHT22;10463;52.378;9.688;2022-07-01T02:45:56;26.40;38.30
20610;DHT22;10463;52.378;9.688;2022-07-01T02:48:41;26.40;38.20
20610;DHT22;10463;52.378;9.688;2022-07-01T02:51:26;26.30;38.10
20610;DHT22;10463;52.378;9.688;2022-07-01T02:54:12;26.30;38.00
20610;DHT22;10463;52.378;9.688;2022-07-01T02:56:56;26.30;38.00
20610;DHT22;10463;52.378;9.688;2022-07-01T02:59:42;26.30;37.80
20610;DHT22;10463;52.378;9.688;2022-07-01T03:02:28;26.30;37.80
20610;DHT22;10463;52.378;9.688;2022-07-01T03:05:12;26.20;37.70
20610;DHT22;10463;52.378;9.688;2022-07-01T03:07:57;26.20;37.70
20610;DHT22;10463;52.378;9.688;2022-07-01T03:10:42;26.20;37.70
20610;DHT22;10463;52.378;9.688;2022-07-01T03:13:27;26.20;37.60
20610;DHT22;10463;52.378;9.688;2022-07-01T03:16:11;26.20;37.60
20610;DHT22;10463;52.378;9.688;2022-07-01T03:18:58;26.20;37.60
20610;DHT22;10463;52.378;9.688;2022-07-01T03:21:43;26.20;37.60
20610;DHT22;10463;52.378;9.688;2022-07-01T03:24:28;26.20;37.60
20610;DHT22;10463;52.378;9.688;2022-07-01T03:27:12;26.20;37.60
20610;DHT22;10463;52.378;9.688;2022-07-01T03:29:57;26.10;37.50
20610;DHT22;10463;52.378;9.688;2022-07-01T03:32:43;26.10;37.60
20610;DHT22;10463;52.378;9.688;2022-07-01T03:35:29;26.10;37.60
20610;DHT22;10463;52.378;9.688;2022-07-01T03:38:19;26.10;37.60
20610;DHT22;10463;52.378;9.688;2022-07-01T03:41:05;26.00;37.50
20610;DHT22;10463;52.378;9.688;2022-07-01T03:43:49;26.00;37.50
20610;DHT22;10463;52.378;9.688;2022-07-01T03:46:34;26.00;37.40
20610;DHT22;10463;52.378;9.688;2022-07-01T03:49:20;26.00;37.40
20610;DHT22;10463;52.378;9.688;2022-07-01T03:52:06;26.00;37.30
20610;DHT22;10463;52.378;9.688;2022-07-01T03:54:52;25.90;37.30
20610;DHT22;10463;52.378;9.688;2022-07-01T03:57:36;25.90;37.30
20610;DHT22;10463;52.378;9.688;2022-07-01T04:00:21;25.80;37.20
20610;DHT22;10463;52.378;9.688;2022-07-01T04:03:08;25.80;37.20
20610;DHT22;10463;52.378;9.688;2022-07-01T04:05:53;25.80;37.20
20610;DHT22;10463;52.378;9.688;2022-07-01T04:08:39;25.70;37.10
20610;DHT22;10463;52.378;9.688;2022-07-01T04:11:24;25.70;37.10
20610;DHT22;10463;52.378;9.688;2022-07-01T04:14:09;25.70;37.20
20610;DHT22;10463;52.378;9.688;2022-07-01T04:16:55;25.70;37.30
20610;DHT22;10463;52.378;9.688;2022-07-01T04:19:39;25.70;37.30
20610;DHT22;10463;52.378;9.688;2022-07-01T04:22:24;25.60;37.30
20610;DHT22;10463;52.378;9.688;2022-07-01T04:25:20;25.60;37.30
20610;DHT22;10463;52.378;9.688;2022-07-01T04:28:04;25.60;37.30
20610;DHT22;10463;52.378;9.688;2022-07-01T04:30:49;25.60;37.30
20610;DHT22;10463;52.378;9.688;2022-07-01T04:33:34;25.50;37.30
20610;DHT22;10463;52.378;9.688;2022-07-01T04:36:18;25.50;37.40
20610;DHT22;10463;52.378;9.688;2022-07-01T04:39:05;25.40;37.40
20610;DHT22;10463;52.378;9.688;2022-07-01T04:41:51;25.40;37.50
20610;DHT22;10463;52.378;9.688;2022-07-01T04:44:45;25.40;37.70
20610;DHT22;10463;52.378;9.688;2022-07-01T04:47:30;25.30;37.70
20610;DHT22;10463;52.378;9.688;2022-07-01T04:50:17;25.30;37.90
20610;DHT22;10463;52.378;9.688;2022-07-01T04:53:01;25.20;38.00
20610;DHT22;10463;52.378;9.688;2022-07-01T04:55:46;25.20;38.20
20610;DHT22;10463;52.378;9.688;2022-07-01T04:58:32;25.10;38.10
20610;DHT22;10463;52.378;9.688;2022-07-01T05:01:17;25.10;38.20
20610;DHT22;10463;52.378;9.688;2022-07-01T05:04:02;25.10;38.30
20610;DHT22;10463;52.378;9.688;2022-07-01T05:06:47;25.10;38.40
20610;DHT22;10463;52.378;9.688;2022-07-01T05:09:32;25.00;38.40
20610;DHT22;10463;52.378;9.688;2022-07-01T05:12:17;25.00;38.50
20610;DHT22;10463;52.378;9.688;2022-07-01T05:15:05;25.10;38.50
20610;DHT22;10463;52.378;9.688;2022-07-01T05:17:51;25.00;38.50
20610;DHT22;10463;52.378;9.688;2022-07-01T05:20:55;25.00;38.50
20610;DHT22;10463;52.378;9.688;2022-07-01T05:23:58;25.00;38.40
20610;DHT22;10463;52.378;9.688;2022-07-01T05:26:43;25.00;38.40
20610;DHT22;10463;52.378;9.688;2022-07-01T05:29:29;25.00;38.60
20610;DHT22;10463;52.378;9.688;2022-07-01T05:32:15;25.00;38.60
20610;DHT22;10463;52.378;9.688;2022-07-01T05:35:00;25.00;38.50
20610;DHT22;10463;52.378;9.688;2022-07-01T05:37:45;25.00;38.50
20610;DHT22;10463;52.378;9.688;2022-07-01T05:40:30;24.90;38.30
20610;DHT22;10463;52.378;9.688;2022-07-01T05:43:15;24.90;38.30
20610;DHT22;10463;52.378;9.688;2022-07-01T05:46:00;24.90;38.30
20610;DHT22;10463;52.378;9.688;2022-07-01T05:48:47;24.90;38.30
20610;DHT22;10463;52.378;9.688;2022-07-01T05:51:31;24.90;38.30
20610;DHT22;10463;52.378;9.688;2022-07-01T05:54:16;24.90;38.30
20610;DHT22;10463;52.378;9.688;2022-07-01T05:57:01;24.90;38.20
20610;DHT22;10463;52.378;9.688;2022-07-01T05:59:46;24.90;38.30
20610;DHT22;10463;52.378;9.688;2022-07-01T06:02:30;24.80;38.20
20610;DHT22;10463;52.378;9.688;2022-07-01T06:05:17;24.80;38.20
20610;DHT22;10463;52.378;9.688;2022-07-01T06:08:02;24.80;38.20
20610;DHT22;10463;52.378;9.688;2022-07-01T06:10:47;24.80;38.20
20610;DHT22;10463;52.378;9.688;2022-07-01T06:13:32;24.80;38.20
20610;DHT22;10463;52.378;9.688;2022-07-01T06:16:17;24.80;38.20
20610;DHT22;10463;52.378;9.688;2022-07-01T06:19:03;24.80;38.20
20610;DHT22;10463;52.378;9.688;2022-07-01T06:21:50;24.80;38.20
20610;DHT22;10463;52.378;9.688;2022-07-01T06:24:35;24.80;38.20
20610;DHT22;10463;52.378;9.688;2022-07-01T06:27:20;24.70;38.20
20610;DHT22;10463;52.378;9.688;2022-07-01T06:30:06;24.70;38.20
20610;DHT22;10463;52.378;9.688;2022-07-01T06:32:51;24.70;38.20
20610;DHT22;10463;52.378;9.688;2022-07-01T06:35:36;24.70;38.20
20610;DHT22;10463;52.378;9.688;2022-07-01T06:38:23;24.70;38.20
20610;DHT22;10463;52.378;9.688;2022-07-01T06:41:07;24.70;38.30
20610;DHT22;10463;52.378;9.688;2022-07-01T06:44:11;24.70;38.30
20610;DHT22;10463;52.378;9.688;2022-07-01T06:46:56;24.70;38.30
20610;DHT22;10463;52.378;9.688;2022-07-01T06:49:41;24.70;38.30
20610;DHT22;10463;52.378;9.688;2022-07-01T06:52:26;24.60;38.30
20610;DHT22;10463;52.378;9.688;2022-07-01T06:55:13;24.60;38.20
20610;DHT22;10463;52.378;9.688;2022-07-01T06:57:58;24.70;38.30
20610;DHT22;10463;52.378;9.688;2022-07-01T07:00:43;24.70;38.20
20610;DHT22;10463;52.378;9.688;2022-07-01T07:03:28;24.70;38.20
20610;DHT22;10463;52.378;9.688;2022-07-01T07:06:12;24.70;38.20
20610;DHT22;10463;52.378;9.688;2022-07-01T07:08:57;24.70;38.20
20610;DHT22;10463;52.378;9.688;2022-07-01T07:11:44;24.70;38.10
20610;DHT22;10463;52.378;9.688;2022-07-01T07:14:28;24.70;38.00
20610;DHT22;10463;52.378;9.688;2022-07-01T07:17:13;24.70;37.90
20610;DHT22;10463;52.378;9.688;2022-07-01T07:19:57;24.70;37.90
20610;DHT22;10463;52.378;9.688;2022-07-01T07:22:42;24.70;37.90
20610;DHT22;10463;52.378;9.688;2022-07-01T07:25:27;24.70;38.00
20610;DHT22;10463;52.378;9.688;2022-07-01T07:28:14;24.70;38.00
20610;DHT22;10463;52.378;9.688;2022-07-01T07:30:59;24.70;38.10
20610;DHT22;10463;52.378;9.688;2022-07-01T07:33:44;24.70;38.10
20610;DHT22;10463;52.378;9.688;2022-07-01T07:36:28;24.70;38.10
20610;DHT22;10463;52.378;9.688;2022-07-01T07:39:13;24.70;38.10
20610;DHT22;10463;52.378;9.688;2022-07-01T07:41:58;24.70;38.10
20610;DHT22;10463;52.378;9.688;2022-07-01T07:44:46;24.70;38.20
20610;DHT22;10463;52.378;9.688;2022-07-01T07:47:30;24.70;38.10
20610;DHT22;10463;52.378;9.688;2022-07-01T07:50:15;24.70;38.20
20610;DHT22;10463;52.378;9.688;2022-07-01T07:53:00;24.70;38.20
20610;DHT22;10463;52.378;9.688;2022-07-01T07:55:47;24.70;38.10
20610;DHT22;10463;52.378;9.688;2022-07-01T07:58:32;24.70;38.00
20610;DHT22;10463;52.378;9.688;2022-07-01T08:01:18;24.70;38.00
20610;DHT22;10463;52.378;9.688;2022-07-01T08:04:03;24.60;37.90
20610;DHT22;10463;52.378;9.688;2022-07-01T08:06:48;24.60;37.90
20610;DHT22;10463;52.378;9.688;2022-07-01T08:09:33;24.60;37.90
20610;DHT22;10463;52.378;9.688;2022-07-01T08:12:19;24.60;37.90
20610;DHT22;10463;52.378;9.688;2022-07-01T08:15:06;24.60;38.60
20610;DHT22;10463;52.378;9.688;2022-07-01T08:17:53;24.60;37.90
20610;DHT22;10463;52.378;9.688;2022-07-01T08:20:37;24.60;38.00
20610;DHT22;10463;52.378;9.688;2022-07-01T08:23:22;24.50;38.00
20610;DHT22;10463;52.378;9.688;2022-07-01T08:26:08;24.50;37.90
20610;DHT22;10463;52.378;9.688;2022-07-01T08:28:56;24.50;37.90
20610;DHT22;10463;52.378;9.688;2022-07-01T08:31:41;24.50;37.80
20610;DHT22;10463;52.378;9.688;2022-07-01T08:34:28;24.50;37.90
20610;DHT22;10463;52.378;9.688;2022-07-01T08:37:13;24.50;37.90
20610;DHT22;10463;52.378;9.688;2022-07-01T08:39:57;24.50;37.90
20610;DHT22;10463;52.378;9.688;2022-07-01T08:42:43;24.50;37.90
20610;DHT22;10463;52.378;9.688;2022-07-01T08:45:30;24.50;37.90
20610;DHT22;10463;52.378;9.688;2022-07-01T08:48:15;24.40;37.90
20610;DHT22;10463;52.378;9.688;2022-07-01T08:51:02;24.40;37.90
20610;DHT22;10463;52.378;9.688;2022-07-01T08:53:48;24.40;37.90
20610;DHT22;10463;52.378;9.688;2022-07-01T08:56:33;24.40;37.90
20610;DHT22;10463;52.378;9.688;2022-07-01T08:59:28;24.40;37.90
20610;DHT22;10463;52.378;9.688;2022-07-01T09:02:13;24.40;37.90
20610;DHT22;10463;52.378;9.688;2022-07-01T09:05:05;24.40;37.90
20610;DHT22;10463;52.378;9.688;2022-07-01T09:08:00;24.40;37.90
20610;DHT22;10463;52.378;9.688;2022-07-01T09:10:45;24.30;37.90
20610;DHT22;10463;52.378;9.688;2022-07-01T09:13:30;24.30;37.80
20610;DHT22;10463;52.378;9.688;2022-07-01T09:16:16;24.30;37.90
20610;DHT22;10463;52.378;9.688;2022-07-01T09:19:02;24.30;37.90
20610;DHT22;10463;52.378;9.688;2022-07-01T09:21:48;24.30;37.90
20610;DHT22;10463;52.378;9.688;2022-07-01T09:24:38;24.30;37.90
20610;DHT22;10463;52.378;9.688;2022-07-01T09:27:26;24.30;37.90
20610;DHT22;10463;52.378;9.688;2022-07-01T09:30:11;24.30;37.80
20610;DHT22;10463;52.378;9.688;2022-07-01T09:33:09;24.30;37.80
20610;DHT22;10463;52.378;9.688;2022-07-01T09:35:56;24.30;37.80
20610;DHT22;10463;52.378;9.688;2022-07-01T09:38:47;24.30;37.90
20610;DHT22;10463;52.378;9.688;2022-07-01T09:41:37;24.30;37.80
20610;DHT22;10463;52.378;9.688;2022-07-01T09:44:22;24.30;37.90
20610;DHT22;10463;52.378;9.688;2022-07-01T09:47:07;24.30;37.80
20610;DHT22;10463;52.378;9.688;2022-07-01T09:49:52;24.30;37.80
20610;DHT22;10463;52.378;9.688;2022-07-01T09:52:37;24.30;37.80
20610;DHT22;10463;52.378;9.688;2022-07-01T09:55:24;24.30;37.80
20610;DHT22;10463;52.378;9.688;2022-07-01T09:58:10;24.30;37.80
20610;DHT22;10463;52.378;9.688;2022-07-01T10:00:55;24.30;37.80
20610;DHT22;10463;52.378;9.688;2022-07-01T10:03:41;24.30;37.80
20610;DHT22;10463;52.378;9.688;2022-07-01T10:06:58;24.30;37.80
20610;DHT22;10463;52.378;9.688;2022-07-01T10:10:01;24.20;37.80
20610;DHT22;10463;52.378;9.688;2022-07-01T10:12:50;24.20;37.90
20610;DHT22;10463;52.378;9.688;2022-07-01T10:15:39;24.20;37.90
20610;DHT22;10463;52.378;9.688;2022-07-01T10:18:26;24.20;37.90
20610;DHT22;10463;52.378;9.688;2022-07-01T10:21:26;24.20;37.90
20610;DHT22;10463;52.378;9.688;2022-07-01T10:24:13;24.30;37.90
20610;DHT22;10463;52.378;9.688;2022-07-01T10:27:00;24.20;37.80
20610;DHT22;10463;52.378;9.688;2022-07-01T10:29:45;24.20;37.80
20610;DHT22;10463;52.378;9.688;2022-07-01T10:32:31;24.20;37.80
20610;DHT22;10463;52.378;9.688;2022-07-01T10:35:16;24.20;37.80
20610;DHT22;10463;52.378;9.688;2022-07-01T10:38:02;24.20;37.70
20610;DHT22;10463;52.378;9.688;2022-07-01T10:40:47;24.20;37.80
20610;DHT22;10463;52.378;9.688;2022-07-01T10:43:36;24.20;37.90
20610;DHT22;10463;52.378;9.688;2022-07-01T10:46:40;24.20;37.90
20610;DHT22;10463;52.378;9.688;2022-07-01T10:49:58;24.20;37.80
20610;DHT22;10463;52.378;9.688;2022-07-01T10:53:00;24.30;37.90
20610;DHT22;10463;52.378;9.688;2022-07-01T10:55:51;24.30;37.80
20610;DHT22;10463;52.378;9.688;2022-07-01T10:58:36;24.30;37.80
20610;DHT22;10463;52.378;9.688;2022-07-01T11:01:22;24.30;37.80
20610;DHT22;10463;52.378;9.688;2022-07-01T11:04:07;24.30;37.80
20610;DHT22;10463;52.378;9.688;2022-07-01T11:06:54;24.30;37.70
20610;DHT22;10463;52.378;9.688;2022-07-01T11:09:40;24.30;37.70
20610;DHT22;10463;52.378;9.688;2022-07-01T11:12:27;24.30;37.70
20610;DHT22;10463;52.378;9.688;2022-07-01T11:15:14;24.40;37.80
20610;DHT22;10463;52.378;9.688;2022-07-01T11:18:00;24.40;37.70
20610;DHT22;10463;52.378;9.688;2022-07-01T11:20:45;24.40;37.70
20610;DHT22;10463;52.378;9.688;2022-07-01T11:23:31;24.40;37.70
20610;DHT22;10463;52.378;9.688;2022-07-01T11:26:24;24.40;37.70
20610;DHT22;10463;52.378;9.688;2022-07-01T11:29:10;24.40;37.60
20610;DHT22;10463;52.378;9.688;2022-07-01T11:31:55;24.40;37.50
20610;DHT22;10463;52.378;9.688;2022-07-01T11:34:40;24.50;37.50
20610;DHT22;10463;52.378;9.688;2022-07-01T11:37:30;24.50;37.40
20610;DHT22;10463;52.378;9.688;2022-07-01T11:40:36;24.50;37.20
20610;DHT22;10463;52.378;9.688;2022-07-01T11:43:23;24.50;37.10
20610;DHT22;10463;52.378;9.688;2022-07-01T11:46:08;24.50;37.00
20610;DHT22;10463;52.378;9.688;2022-07-01T11:48:53;24.50;37.00
20610;DHT22;10463;52.378;9.688;2022-07-01T11:51:39;24.50;36.90
20610;DHT22;10463;52.378;9.688;2022-07-01T11:54:25;24.50;36.80
20610;DHT22;10463;52.378;9.688;2022-07-01T11:57:14;24.50;36.80
20610;DHT22;10463;52.378;9.688;2022-07-01T12:00:10;24.50;36.50
20610;DHT22;10463;52.378;9.688;2022-07-01T12:02:56;24.50;36.50
20610;DHT22;10463;52.378;9.688;2022-07-01T12:05:41;24.50;36.40
20610;DHT22;10463;52.378;9.688;2022-07-01T12:08:26;24.50;36.20
20610;DHT22;10463;52.378;9.688;2022-07-01T12:11:11;24.50;36.20
20610;DHT22;10463;52.378;9.688;2022-07-01T12:13:58;24.50;36.10
20610;DHT22;10463;52.378;9.688;2022-07-01T12:16:43;24.60;36.10
20610;DHT22;10463;52.378;9.688;2022-07-01T12:19:29;24.60;36.00
20610;DHT22;10463;52.378;9.688;2022-07-01T12:22:24;24.60;36.00
20610;DHT22;10463;52.378;9.688;2022-07-01T12:25:12;24.60;35.90
20610;DHT22;10463;52.378;9.688;2022-07-01T12:27:58;24.60;35.70
20610;DHT22;10463;52.378;9.688;2022-07-01T12:30:45;24.60;35.70
20610;DHT22;10463;52.378;9.688;2022-07-01T12:33:30;24.60;35.60
20610;DHT22;10463;52.378;9.688;2022-07-01T12:36:15;24.60;35.60
20610;DHT22;10463;52.378;9.688;2022-07-01T12:39:03;24.60;35.60
20610;DHT22;10463;52.378;9.688;2022-07-01T12:41:50;24.60;35.60
20610;DHT22;10463;52.378;9.688;2022-07-01T12:44:44;24.60;35.60
20610;DHT22;10463;52.378;9.688;2022-07-01T12:47:32;24.60;35.50
20610;DHT22;10463;52.378;9.688;2022-07-01T12:50:19;24.60;35.60
20610;DHT22;10463;52.378;9.688;2022-07-01T12:53:09;24.60;35.60
20610;DHT22;10463;52.378;9.688;2022-07-01T12:55:56;24.60;35.60
20610;DHT22;10463;52.378;9.688;2022-07-01T12:58:42;24.60;35.70
20610;DHT22;10463;52.378;9.688;2022-07-01T13:01:26;24.60;35.70
20610;DHT22;10463;52.378;9.688;2022-07-01T13:04:12;24.70;35.90
20610;DHT22;10463;52.378;9.688;2022-07-01T13:06:58;24.60;35.90
20610;DHT22;10463;52.378;9.688;2022-07-01T13:09:43;24.60;35.90
20610;DHT22;10463;52.378;9.688;2022-07-01T13:12:27;24.60;35.90
20610;DHT22;10463;52.378;9.688;2022-07-01T13:15:13;24.60;35.80
20610;DHT22;10463;52.378;9.688;2022-07-01T13:17:59;24.60;35.90
20610;DHT22;10463;52.378;9.688;2022-07-01T13:20:45;24.60;35.80
20610;DHT22;10463;52.378;9.688;2022-07-01T13:23:31;24.60;35.80
20610;DHT22;10463;52.378;9.688;2022-07-01T13:26:16;24.70;35.70
20610;DHT22;10463;52.378;9.688;2022-07-01T13:29:01;24.60;35.60
20610;DHT22;10463;52.378;9.688;2022-07-01T13:31:46;24.70;35.60
20610;DHT22;10463;52.378;9.688;2022-07-01T13:34:32;24.70;35.50
20610;DHT22;10463;52.378;9.688;2022-07-01T13:37:19;24.70;35.30
20610;DHT22;10463;52.378;9.688;2022-07-01T13:40:06;24.70;35.30
20610;DHT22;10463;52.378;9.688;2022-07-01T13:42:50;24.70;35.30
20610;DHT22;10463;52.378;9.688;2022-07-01T13:45:35;24.70;35.20
20610;DHT22;10463;52.378;9.688;2022-07-01T13:48:20;24.70;35.20
20610;DHT22;10463;52.378;9.688;2022-07-01T13:51:05;24.70;35.10
20610;DHT22;10463;52.378;9.688;2022-07-01T13:53:51;24.80;35.20
20610;DHT22;10463;52.378;9.688;2022-07-01T13:56:36;24.80;35.20
20610;DHT22;10463;52.378;9.688;2022-07-01T13:59:20;24.80;35.10
20610;DHT22;10463;52.378;9.688;2022-07-01T14:02:05;24.80;35.00
20610;DHT22;10463;52.378;9.688;2022-07-01T14:04:50;24.80;34.90
20610;DHT22;10463;52.378;9.688;2022-07-01T14:07:35;24.90;34.70
20610;DHT22;10463;52.378;9.688;2022-07-01T14:10:22;24.90;34.70
20610;DHT22;10463;52.378;9.688;2022-07-01T14:13:07;24.90;34.50
20610;DHT22;10463;52.378;9.688;2022-07-01T14:15:52;24.90;34.20
20610;DHT22;10463;52.378;9.688;2022-07-01T14:18:38;24.90;34.10
20610;DHT22;10463;52.378;9.688;2022-07-01T14:21:23;24.90;33.80
20610;DHT22;10463;52.378;9.688;2022-07-01T14:24:08;24.90;33.70
20610;DHT22;10463;52.378;9.688;2022-07-01T14:26:55;24.90;33.60
20610;DHT22;10463;52.378;9.688;2022-07-01T14:29:40;24.90;33.60
20610;DHT22;10463;52.378;9.688;2022-07-01T14:32:25;24.90;33.50
20610;DHT22;10463;52.378;9.688;2022-07-01T14:35:14;24.90;33.30
20610;DHT22;10463;52.378;9.688;2022-07-01T14:37:59;24.90;33.10
20610;DHT22;10463;52.378;9.688;2022-07-01T14:40:45;24.90;33.00
20610;DHT22;10463;52.378;9.688;2022-07-01T14:43:31;24.90;33.10
20610;DHT22;10463;52.378;9.688;2022-07-01T14:46:17;24.90;33.00
20610;DHT22;10463;52.378;9.688;2022-07-01T14:49:02;24.90;33.00
20610;DHT22;10463;52.378;9.688;2022-07-01T14:51:47;24.90;33.00
20610;DHT22;10463;52.378;9.688;2022-07-01T14:54:32;24.90;32.80
20610;DHT22;10463;52.378;9.688;2022-07-01T14:57:17;24.90;32.90
20610;DHT22;10463;52.378;9.688;2022-07-01T15:00:05;24.90;32.80
20610;DHT22;10463;52.378;9.688;2022-07-01T15:02:51;24.90;32.70
20610;DHT22;10463;52.378;9.688;2022-07-01T15:05:36;24.90;32.70
20610;DHT22;10463;52.378;9.688;2022-07-01T15:08:21;24.90;32.70
20610;DHT22;10463;52.378;9.688;2022-07-01T15:11:06;24.90;32.80
20610;DHT22;10463;52.378;9.688;2022-07-01T15:13:51;24.90;32.60
20610;DHT22;10463;52.378;9.688;2022-07-01T15:16:37;24.90;32.60
20610;DHT22;10463;52.378;9.688;2022-07-01T15:19:22;24.90;32.50
20610;DHT22;10463;52.378;9.688;2022-07-01T15:22:08;25.00;32.50
20610;DHT22;10463;52.378;9.688;2022-07-01T15:24:53;25.00;32.40
20610;DHT22;10463;52.378;9.688;2022-07-01T15:27:38;25.00;32.40
20610;DHT22;10463;52.378;9.688;2022-07-01T15:30:24;25.00;32.30
20610;DHT22;10463;52.378;9.688;2022-07-01T15:33:10;25.00;32.30
20610;DHT22;10463;52.378;9.688;2022-07-01T15:35:55;25.00;32.20
20610;DHT22;10463;52.378;9.688;2022-07-01T15:38:40;25.00;32.20
20610;DHT22;10463;52.378;9.688;2022-07-01T15:41:25;25.00;32.10
20610;DHT22;10463;52.378;9.688;2022-07-01T15:44:10;25.10;32.10
20610;DHT22;10463;52.378;9.688;2022-07-01T15:46:57;25.10;32.00
20610;DHT22;10463;52.378;9.688;2022-07-01T15:49:43;25.10;32.00
20610;DHT22;10463;52.378;9.688;2022-07-01T15:52:28;25.10;32.00
20610;DHT22;10463;52.378;9.688;2022-07-01T15:55:13;25.10;31.90
20610;DHT22;10463;52.378;9.688;2022-07-01T15:57:57;25.10;31.70
20610;DHT22;10463;52.378;9.688;2022-07-01T16:00:45;25.10;31.80
20610;DHT22;10463;52.378;9.688;2022-07-01T16:03:31;25.20;31.80
20610;DHT22;10463;52.378;9.688;2022-07-01T16:06:18;25.20;31.70
20610;DHT22;10463;52.378;9.688;2022-07-01T16:09:03;25.20;31.70
20610;DHT22;10463;52.378;9.688;2022-07-01T16:11:49;25.20;31.70
20610;DHT22;10463;52.378;9.688;2022-07-01T16:14:38;25.20;31.60
20610;DHT22;10463;52.378;9.688;2022-07-01T16:17:24;25.20;31.50
20610;DHT22;10463;52.378;9.688;2022-07-01T16:20:12;25.30;31.60
20610;DHT22;10463;52.378;9.688;2022-07-01T16:23:02;25.30;31.40
20610;DHT22;10463;52.378;9.688;2022-07-01T16:25:48;25.30;31.50
20610;DHT22;10463;52.378;9.688;2022-07-01T16:28:33;25.30;31.40
20610;DHT22;10463;52.378;9.688;2022-07-01T16:31:20;25.40;31.40
20610;DHT22;10463;52.378;9.688;2022-07-01T16:34:05;25.40;31.40
20610;DHT22;10463;52.378;9.688;2022-07-01T16:36:53;25.40;31.30
20610;DHT22;10463;52.378;9.688;2022-07-01T16:39:45;25.40;31.30
20610;DHT22;10463;52.378;9.688;2022-07-01T16:42:31;25.50;31.30
20610;DHT22;10463;52.378;9.688;2022-07-01T16:45:24;25.40;31.30
20610;DHT22;10463;52.378;9.688;2022-07-01T16:48:13;25.40;31.30
20610;DHT22;10463;52.378;9.688;2022-07-01T16:50:59;25.50;31.30
20610;DHT22;10463;52.378;9.688;2022-07-01T16:53:47;25.50;31.30
20610;DHT22;10463;52.378;9.688;2022-07-01T16:56:36;25.50;31.30
20610;DHT22;10463;52.378;9.688;2022-07-01T16:59:26;25.50;31.20
20610;DHT22;10463;52.378;9.688;2022-07-01T17:02:13;25.50;31.00
20610;DHT22;10463;52.378;9.688;2022-07-01T17:05:01;25.50;31.00
20610;DHT22;10463;52.378;9.688;2022-07-01T17:07:47;25.60;30.90
20610;DHT22;10463;52.378;9.688;2022-07-01T17:10:33;25.60;31.00
20610;DHT22;10463;52.378;9.688;2022-07-01T17:13:20;25.60;30.80
20610;DHT22;10463;52.378;9.688;2022-07-01T17:16:06;25.60;30.80
20610;DHT22;10463;52.378;9.688;2022-07-01T17:18:51;25.60;30.90
20610;DHT22;10463;52.378;9.688;2022-07-01T17:21:41;25.60;30.90
20610;DHT22;10463;52.378;9.688;2022-07-01T17:24:27;25.70;30.90
20610;DHT22;10463;52.378;9.688;2022-07-01T17:27:23;25.70;30.70
20610;DHT22;10463;52.378;9.688;2022-07-01T17:30:14;25.70;30.80